createdAt,value
2023-02-15T16:33:12.598Z,7.40
2023-02-15T16:34:13.184Z,35.80
2023-02-15T16:35:13.392Z,36.40
2023-02-15T16:36:13.620Z,36.60
2023-02-15T16:37:13.866Z,35.40
2023-02-15T16:38:14.219Z,34.90
2023-02-15T16:39:14.290Z,35.00
2023-02-15T16:40:14.529Z,36.70
2023-02-15T16:41:14.784Z,37.20
2023-02-15T16:42:15.030Z,37.00
2023-02-15T16:43:15.326Z,37.60
2023-02-15T16:44:15.514Z,36.90
2023-02-15T16:45:15.742Z,36.80
2023-02-15T16:46:16.000Z,37.30
2023-02-15T16:47:16.213Z,37.80
2023-02-15T16:48:16.540Z,35.40
2023-02-15T16:49:16.679Z,34.60
2023-02-15T16:50:16.918Z,35.90
2023-02-15T16:51:17.150Z,35.20
2023-02-15T16:52:17.384Z,34.10
2023-02-15T16:53:17.670Z,35.20
2023-02-15T16:54:17.868Z,34.90
2023-02-15T16:55:18.111Z,34.70
2023-02-15T16:56:18.347Z,35.80
2023-02-15T16:57:18.567Z,35.80
2023-02-15T16:58:18.819Z,35.40
2023-02-15T16:59:19.034Z,33.70
2023-02-15T17:00:19.298Z,34.00
2023-02-15T17:01:19.582Z,34.00
2023-02-15T17:02:40.183Z,34.10
2023-02-15T17:03:20.036Z,33.50
2023-02-15T17:04:20.192Z,33.80
2023-02-15T17:05:20.427Z,35.10
2023-02-15T17:06:20.656Z,34.70
2023-02-15T17:07:20.892Z,35.80
2023-02-15T17:08:21.285Z,38.70
2023-02-15T17:09:21.354Z,38.20
2023-02-15T17:10:21.594Z,36.20
2023-02-15T17:11:21.827Z,35.60
2023-02-15T17:12:22.049Z,37.30
2023-02-15T17:13:22.360Z,36.90
2023-02-15T17:14:22.516Z,35.60
2023-02-15T17:15:22.745Z,34.30
2023-02-15T17:16:23.049Z,35.30
2023-02-15T17:17:23.221Z,34.20
2023-02-15T17:18:23.498Z,33.90
2023-02-15T17:19:23.673Z,34.30
2023-02-15T17:20:23.902Z,33.50
2023-02-15T17:21:24.174Z,34.30
2023-02-15T17:22:24.390Z,35.30
2023-02-15T17:23:24.621Z,33.50
2023-02-15T17:24:24.870Z,33.30
2023-02-15T17:25:25.105Z,33.50
2023-02-15T17:26:25.367Z,32.80
2023-02-15T17:27:25.612Z,33.50
2023-02-15T17:28:25.967Z,33.60
2023-02-15T17:29:26.077Z,34.20
2023-02-15T17:30:26.335Z,34.10
2023-02-15T17:31:26.758Z,33.30
2023-02-15T17:32:26.905Z,32.80
2023-02-15T17:33:27.015Z,32.40
2023-02-15T17:34:27.201Z,31.30
2023-02-15T17:35:27.446Z,32.70
2023-02-15T17:36:27.702Z,32.70
2023-02-15T17:37:27.909Z,31.50
2023-02-15T17:38:28.143Z,32.50
2023-02-15T17:39:28.421Z,33.60
2023-02-15T17:40:28.627Z,32.30
2023-02-15T17:41:28.865Z,33.60
2023-02-15T17:42:29.148Z,32.20
2023-02-15T17:43:29.363Z,33.90
2023-02-15T17:44:29.836Z,32.60
2023-02-15T17:45:29.918Z,34.30
2023-02-15T17:46:30.119Z,32.50
2023-02-15T17:47:30.366Z,34.20
2023-02-15T17:48:30.644Z,35.50
2023-02-15T17:49:30.990Z,35.60
2023-02-15T17:50:31.126Z,35.30
2023-02-15T17:51:31.403Z,33.80
2023-02-15T17:52:31.639Z,31.80
2023-02-15T17:53:31.882Z,33.60
2023-02-15T17:54:32.175Z,31.30
2023-02-15T17:55:32.365Z,32.10
2023-02-15T17:56:32.620Z,31.00
2023-02-15T17:57:32.949Z,29.90
2023-02-15T17:58:33.145Z,30.50
2023-02-15T17:59:33.397Z,29.80
2023-02-15T18:00:33.711Z,29.80
2023-02-15T18:01:34.029Z,29.90
2023-02-15T18:02:34.166Z,29.40
2023-02-15T18:03:34.487Z,31.20
2023-02-15T18:04:34.810Z,30.10
2023-02-15T18:05:34.965Z,30.20
2023-02-15T18:06:35.159Z,31.10
2023-02-15T18:07:35.429Z,30.60
2023-02-15T18:08:36.363Z,30.80
2023-02-15T18:09:35.966Z,30.30
2023-02-15T18:10:36.193Z,29.80
2023-02-15T18:11:36.385Z,30.30
2023-02-15T18:12:36.732Z,29.20
2023-02-15T18:13:36.915Z,29.60
2023-02-15T18:14:37.144Z,30.20
2023-02-15T18:15:37.413Z,30.20
2023-02-15T18:16:37.682Z,30.30
2023-02-15T18:17:37.963Z,30.70
2023-02-15T18:18:38.252Z,29.30
2023-02-15T18:19:38.431Z,31.00
2023-02-15T18:20:38.702Z,30.50
2023-02-15T18:21:38.972Z,30.00
2023-02-15T18:22:39.261Z,30.50
2023-02-15T18:23:39.499Z,30.20
2023-02-15T18:24:39.698Z,30.10
2023-02-15T18:25:39.953Z,30.70
2023-02-15T18:26:40.206Z,31.50
2023-02-15T18:27:40.477Z,31.60
2023-02-15T18:28:40.742Z,31.80
2023-02-15T18:29:40.960Z,30.50
2023-02-15T18:30:41.314Z,31.60
2023-02-15T18:31:41.691Z,28.90
2023-02-15T18:32:41.755Z,29.70
2023-02-15T18:33:42.179Z,29.00
2023-02-15T18:34:42.261Z,29.20
2023-02-15T18:35:42.495Z,29.70
2023-02-15T18:36:42.757Z,30.40
2023-02-15T18:37:42.969Z,30.80
2023-02-15T18:38:43.230Z,29.80
2023-02-15T18:39:43.837Z,29.90
2023-02-15T18:40:43.736Z,30.40
2023-02-15T18:41:44.076Z,30.00
2023-02-15T18:42:44.253Z,29.70
2023-02-15T18:43:44.498Z,29.70
2023-02-15T18:44:44.887Z,31.20
2023-02-15T18:45:45.034Z,30.70
2023-02-15T18:46:45.254Z,30.60
2023-02-15T18:47:45.510Z,31.00
2023-02-15T18:48:45.769Z,29.30
2023-02-15T18:49:46.043Z,30.20
2023-02-15T18:50:46.243Z,30.00
2023-02-15T18:51:46.486Z,30.20
2023-02-15T18:52:46.718Z,31.00
2023-02-15T18:53:46.973Z,31.10
2023-02-15T18:54:47.243Z,29.80
2023-02-15T18:55:47.445Z,29.70
2023-02-15T18:56:47.733Z,31.90
2023-02-15T18:57:47.926Z,31.60
2023-02-15T18:58:48.182Z,31.20
2023-02-15T18:59:48.592Z,30.90
2023-02-15T19:00:48.761Z,30.80
2023-02-15T19:01:48.925Z,30.10
2023-02-15T19:02:49.181Z,29.70
2023-02-15T19:03:49.699Z,30.40
2023-02-15T19:04:50.067Z,30.50
2023-02-15T19:05:49.995Z,29.30
2023-02-15T19:06:50.190Z,29.60
2023-02-15T19:07:50.451Z,28.90
2023-02-15T19:08:50.713Z,30.10
2023-02-15T19:09:51.004Z,29.70
2023-02-15T19:10:51.171Z,29.70
2023-02-15T19:11:51.423Z,30.40
2023-02-15T19:12:51.669Z,30.60
2023-02-15T19:13:51.926Z,29.80
2023-02-15T19:14:52.358Z,28.90
2023-02-15T19:15:52.430Z,30.00
2023-02-15T19:16:52.940Z,29.60
2023-02-15T19:17:52.924Z,30.20
2023-02-15T19:18:53.182Z,28.80
2023-02-15T19:19:53.419Z,29.60
2023-02-15T19:20:53.691Z,29.70
2023-02-15T19:21:53.921Z,29.90
2023-02-15T19:22:54.084Z,30.50
2023-02-15T19:23:54.316Z,29.50
2023-02-15T19:24:54.586Z,28.70
2023-02-15T19:25:54.945Z,29.30
2023-02-15T19:26:55.010Z,28.90
2023-02-15T19:27:55.397Z,29.30
2023-02-15T19:28:55.548Z,29.60
2023-02-15T19:29:55.816Z,29.40
2023-02-15T19:30:56.091Z,29.80
2023-02-15T19:31:56.293Z,30.50
2023-02-15T19:32:56.420Z,28.90
2023-02-15T19:33:56.696Z,29.50
2023-02-15T19:34:56.940Z,30.80
2023-02-15T19:35:57.718Z,29.50
2023-02-15T19:36:57.441Z,28.50
2023-02-15T19:37:57.686Z,29.50
2023-02-15T19:38:57.953Z,30.30
2023-02-15T19:39:58.196Z,29.80
2023-02-15T19:40:58.496Z,29.50
2023-02-15T19:41:58.728Z,29.60
2023-02-15T19:42:59.161Z,30.00
2023-02-15T19:43:59.436Z,30.80
2023-02-15T19:44:59.462Z,29.40
2023-02-15T19:45:59.798Z,29.50
2023-02-15T19:47:00.165Z,29.80
2023-02-15T19:48:00.177Z,30.40
2023-02-15T19:49:00.450Z,28.90
2023-02-15T19:50:00.669Z,28.50
2023-02-15T19:51:00.877Z,29.20
2023-02-15T19:52:01.127Z,27.70
2023-02-15T19:53:01.393Z,29.30
2023-02-15T19:54:01.575Z,31.60
2023-02-15T19:55:01.807Z,30.50
2023-02-15T19:56:02.365Z,30.40
2023-02-15T19:57:02.300Z,29.80
2023-02-15T19:58:02.476Z,31.00
2023-02-15T19:59:02.899Z,30.40
2023-02-15T20:00:15.835Z,30.80
2023-02-15T20:01:03.757Z,30.50
2023-02-15T20:02:03.520Z,30.40
2023-02-15T20:03:03.677Z,30.80
2023-02-15T20:04:03.992Z,32.30
2023-02-15T20:05:04.202Z,30.10
2023-02-15T20:06:04.328Z,29.40
2023-02-15T20:07:04.580Z,30.30
2023-02-15T20:08:04.804Z,30.20
2023-02-15T20:09:05.138Z,31.20
2023-02-15T20:10:05.260Z,31.10
2023-02-15T20:11:05.689Z,30.20
2023-02-15T20:12:05.739Z,31.50
2023-02-15T20:13:05.965Z,30.90
2023-02-15T20:14:06.253Z,30.70
2023-02-15T20:15:06.470Z,30.10
2023-02-15T20:16:06.783Z,29.90
2023-02-15T20:17:07.014Z,29.30
2023-02-15T20:18:07.366Z,29.70
2023-02-15T20:19:07.426Z,29.60
2023-02-15T20:20:07.645Z,29.30
2023-02-15T20:21:07.907Z,28.00
2023-02-15T20:22:08.097Z,28.80
2023-02-15T20:23:08.391Z,28.40
2023-02-15T20:24:08.563Z,27.70
2023-02-15T20:25:08.791Z,29.00
2023-02-15T20:26:09.033Z,28.00
2023-02-15T20:27:09.243Z,27.30
2023-02-15T20:28:09.566Z,26.90
2023-02-15T20:29:09.719Z,28.10
2023-02-15T20:30:09.996Z,26.10
2023-02-15T20:31:10.398Z,28.00
2023-02-15T20:32:10.544Z,27.40
2023-02-15T20:33:10.844Z,26.80
2023-02-15T20:34:10.951Z,27.20
2023-02-15T20:35:11.208Z,26.20
2023-02-15T20:36:11.472Z,26.90
2023-02-15T20:37:11.598Z,25.90
2023-02-15T20:38:11.820Z,27.00
2023-02-15T20:39:12.034Z,27.20
2023-02-15T20:40:12.264Z,27.40
2023-02-15T20:41:12.526Z,27.00
2023-02-15T20:42:12.737Z,28.70
2023-02-15T20:43:12.971Z,28.10
2023-02-15T20:44:13.203Z,28.10
2023-02-15T20:45:13.451Z,28.80
2023-02-15T20:46:13.700Z,28.50
2023-02-15T20:47:14.022Z,27.40
2023-02-15T20:48:14.229Z,28.70
2023-02-15T20:49:14.442Z,27.90
2023-02-15T20:50:14.738Z,29.30
2023-02-15T20:51:14.829Z,29.80
2023-02-15T20:52:15.603Z,29.60
2023-02-15T20:53:15.343Z,29.20
2023-02-15T20:54:15.592Z,30.00
2023-02-15T20:55:15.855Z,28.80
2023-02-15T20:56:16.101Z,28.90
2023-02-15T20:57:16.412Z,28.00
2023-02-15T20:58:16.598Z,29.00
2023-02-15T20:59:16.846Z,28.40
2023-02-15T21:00:17.201Z,28.90
2023-02-15T21:01:17.391Z,29.30
2023-02-15T21:02:17.700Z,29.10
2023-02-15T21:03:18.008Z,28.90
2023-02-15T21:04:18.254Z,30.60
2023-02-15T21:05:18.442Z,29.80
2023-02-15T21:06:18.782Z,29.90
2023-02-15T21:07:19.173Z,29.00
2023-02-15T21:08:19.588Z,29.80
2023-02-15T21:09:19.639Z,29.50
2023-02-15T21:10:19.810Z,29.30
2023-02-15T21:11:20.096Z,29.90
2023-02-15T21:12:20.364Z,29.90
2023-02-15T21:13:20.741Z,29.50
2023-02-15T21:14:20.910Z,28.70
2023-02-15T21:15:21.176Z,29.00
2023-02-15T21:16:21.528Z,29.90
2023-02-15T21:17:21.740Z,30.50
2023-02-15T21:18:22.111Z,30.20
2023-02-15T21:19:22.321Z,29.10
2023-02-15T21:20:22.638Z,30.90
2023-02-15T21:21:22.849Z,30.70
2023-02-15T21:22:23.272Z,30.10
2023-02-15T21:23:23.574Z,31.20
2023-02-15T21:24:23.705Z,29.90
2023-02-15T21:25:23.987Z,30.90
2023-02-15T21:26:24.319Z,29.70
2023-02-15T21:27:24.544Z,30.90
2023-02-15T21:28:24.864Z,29.00
2023-02-15T21:29:25.111Z,29.50
2023-02-15T21:30:25.523Z,30.30
2023-02-15T21:31:25.930Z,30.20
2023-02-15T21:32:26.181Z,29.40
2023-02-15T21:33:26.417Z,29.40
2023-02-15T21:34:26.645Z,30.50
2023-02-15T21:35:27.042Z,30.20
2023-02-15T21:36:27.167Z,29.20
2023-02-15T21:37:27.567Z,30.00
2023-02-15T21:38:27.746Z,30.40
2023-02-15T21:39:28.019Z,30.90
2023-02-15T21:40:28.311Z,30.50
2023-02-15T21:41:28.579Z,30.50
2023-02-15T21:42:28.905Z,29.30
2023-02-15T21:43:29.141Z,30.00
2023-02-15T21:44:29.456Z,30.10
2023-02-15T21:45:29.720Z,30.80
2023-02-15T21:46:30.273Z,32.20
2023-02-15T21:47:30.350Z,31.10
2023-02-15T21:48:30.616Z,30.90
2023-02-15T21:49:30.905Z,31.10
2023-02-15T21:50:31.165Z,31.00
2023-02-15T21:51:31.558Z,30.80
2023-02-15T21:52:31.871Z,30.80
2023-02-15T21:53:32.068Z,31.80
2023-02-15T21:54:32.294Z,30.10
2023-02-15T21:55:32.578Z,31.60
2023-02-15T21:56:32.843Z,31.80
2023-02-15T21:57:33.222Z,31.40
2023-02-15T21:58:33.418Z,32.70
2023-02-15T21:59:33.871Z,32.00
2023-02-15T22:00:34.119Z,32.10
2023-02-15T22:01:34.266Z,31.60
2023-02-15T22:02:34.587Z,32.20
2023-02-15T22:03:34.984Z,31.90
2023-02-15T22:04:35.156Z,32.60
2023-02-15T22:05:35.416Z,32.60
2023-02-15T22:06:35.690Z,31.90
2023-02-15T22:07:35.988Z,31.70
2023-02-15T22:08:36.249Z,32.20
2023-02-15T22:09:36.720Z,33.20
2023-02-15T22:10:36.961Z,31.60
2023-02-15T22:11:37.452Z,32.40
2023-02-15T22:12:37.539Z,33.10
2023-02-15T22:13:37.667Z,32.40
2023-02-15T22:14:37.905Z,32.80
2023-02-15T22:15:38.322Z,31.80
2023-02-15T22:16:38.556Z,32.10
2023-02-15T22:17:38.760Z,31.50
2023-02-15T22:18:39.072Z,31.40
2023-02-15T22:19:39.354Z,34.20
2023-02-15T22:20:39.597Z,32.40
2023-02-15T22:21:39.890Z,32.90
2023-02-15T22:22:40.106Z,32.10
2023-02-15T22:23:40.505Z,33.20
2023-02-15T22:24:40.801Z,32.90
2023-02-15T22:25:40.832Z,31.60
2023-02-15T22:26:41.363Z,32.10
2023-02-15T22:27:41.471Z,32.20
2023-02-15T22:28:41.605Z,32.70
2023-02-15T22:29:41.769Z,33.30
2023-02-15T22:30:42.006Z,32.70
2023-02-15T22:31:42.741Z,32.20
2023-02-15T22:32:42.481Z,32.30
2023-02-15T22:33:42.773Z,33.10
2023-02-15T22:34:43.004Z,32.60
2023-02-15T22:35:43.235Z,33.20
2023-02-15T22:36:43.523Z,32.90
2023-02-15T22:37:43.760Z,33.10
2023-02-15T22:38:44.009Z,34.70
2023-02-15T22:39:44.266Z,32.60
2023-02-15T22:40:44.502Z,34.20
2023-02-15T22:41:44.768Z,33.00
2023-02-15T22:42:45.001Z,34.90
2023-02-15T22:43:45.259Z,33.10
2023-02-15T22:44:45.508Z,32.40
2023-02-15T22:45:45.835Z,33.10
2023-02-15T22:46:46.257Z,33.30
2023-02-15T22:47:46.235Z,32.90
2023-02-15T22:48:46.492Z,33.20
2023-02-15T22:49:46.766Z,33.20
2023-02-15T22:50:46.987Z,32.70
2023-02-15T22:51:47.266Z,31.70
2023-02-15T22:52:47.518Z,31.90
2023-02-15T22:53:47.739Z,34.00
2023-02-15T22:54:47.998Z,33.60
2023-02-15T22:55:48.251Z,33.90
2023-02-15T22:56:48.522Z,33.40
2023-02-15T22:57:48.824Z,33.20
2023-02-15T22:58:49.044Z,34.40
2023-02-15T22:59:49.308Z,33.70
2023-02-15T23:00:49.616Z,33.10
2023-02-15T23:01:49.812Z,33.40
2023-02-15T23:02:50.106Z,33.80
2023-02-15T23:03:50.377Z,34.10
2023-02-15T23:04:50.635Z,34.00
2023-02-15T23:05:50.816Z,33.90
2023-02-15T23:06:51.062Z,33.60
2023-02-15T23:07:51.425Z,33.90
2023-02-15T23:08:51.551Z,33.60
2023-02-15T23:09:51.992Z,33.60
2023-02-15T23:10:52.033Z,34.30
2023-02-15T23:11:52.274Z,34.30
2023-02-15T23:12:52.569Z,33.90
2023-02-15T23:13:52.774Z,34.60
2023-02-15T23:14:53.012Z,34.40
2023-02-15T23:15:53.255Z,34.10
2023-02-15T23:16:53.558Z,34.00
2023-02-15T23:17:53.766Z,34.90
2023-02-15T23:18:53.960Z,33.40
2023-02-15T23:19:54.239Z,34.40
2023-02-15T23:20:54.424Z,33.80
2023-02-15T23:21:54.676Z,34.60
2023-02-15T23:22:54.982Z,35.00
2023-02-15T23:23:55.177Z,34.20
2023-02-15T23:24:55.431Z,34.90
2023-02-15T23:25:55.694Z,33.70
2023-02-15T23:26:55.949Z,34.10
2023-02-15T23:27:56.240Z,33.70
2023-02-15T23:28:56.531Z,34.80
2023-02-15T23:29:56.742Z,34.00
2023-02-15T23:30:56.995Z,34.70
2023-02-15T23:31:57.452Z,35.70
2023-02-15T23:32:57.507Z,34.80
2023-02-15T23:33:57.759Z,36.40
2023-02-15T23:34:58.028Z,35.80
2023-02-15T23:35:58.257Z,35.30
2023-02-15T23:36:58.548Z,35.70
2023-02-15T23:37:58.759Z,34.50
2023-02-15T23:38:59.008Z,35.40
2023-02-15T23:39:59.432Z,36.30
2023-02-15T23:40:59.516Z,36.60
2023-02-15T23:41:59.787Z,35.20
2023-02-15T23:43:00.004Z,36.30
2023-02-15T23:44:00.278Z,36.10
2023-02-15T23:45:00.748Z,36.20
2023-02-15T23:46:00.759Z,36.00
2023-02-15T23:47:01.012Z,36.90
2023-02-15T23:48:01.258Z,36.10
2023-02-15T23:49:01.496Z,36.00
2023-02-15T23:50:02.049Z,37.00
2023-02-15T23:51:02.440Z,37.40
2023-02-15T23:52:02.261Z,37.40
2023-02-15T23:53:02.500Z,36.40
2023-02-15T23:54:02.748Z,36.10
2023-02-15T23:55:03.150Z,35.10
2023-02-15T23:56:03.249Z,36.70
2023-02-15T23:57:03.507Z,36.00
2023-02-15T23:58:03.768Z,35.20
2023-02-15T23:59:04.025Z,35.80
